Esperance Airport
YESP : now visible

Airfield :











YOU CAN JOIN US ON...

 
LOGIN :

Register | Disclaimer

   EN    FR    IT 

 









Legend :    VFR   Marginal VFR   IFR   Intensive IFR   Very Intensive IFR
Visi :
Ceiling :
>= 8 km
>= 3000ft
5 to 8 km
1000 to 3000 ft
1500m to 5 km
500 to 1000 ft
800 to 1500m
200 to 500 ft
< 800m
< 200 ft
Symbols :   Thunderstorms  Fog  Heavy snow  Heavy precipitations  Wind > 20 kt






- Airport Elevation : 470 ft
- IATA code : EPR


YESP - Esperance

CURRENT METAR :
  • 260330Z AUTO 27014KT 4900 // BKN006 OVC011 OVC023 11/11 Q1016

EXPIRED METARs :
  • 260306Z AUTO 26018KT 6000 // BKN007 OVC011 11/10 Q1016
  • 260230Z AUTO 26017KT 4400 // BKN009 BKN015 BKN035 11/10 Q1016
  • 260200Z AUTO 27014KT 9999 // BKN011 OVC018 10/09 Q1016
  • 260152Z AUTO 28016KT 9999 // BKN011 OVC018 10/09 Q1016
  • 260132Z AUTO 27015KT 5000 // SCT008 BKN011 OVC033 10/08 Q1016
  • 260100Z AUTO 27016KT 9999 // BKN013 OVC048 10/08 Q1015

TAF N/A
YMMM FIR / Oceania



MET'MAP, your aeronautical weather chart ! - Copyright ORBIFLY December 2007 - Disclaimer

ORBIFLY MET'MAP TEAM :

Programming & Development : Alexandra Zaïnal
Concept & original design : Baudouin d'Aumeries
Assistance for programming : Marc-Olivier Méhu
Technical & hardware support : Manuel Goepfert

Contact : metmap@orbifly.com




SOURCES & CREDITS :

   NOAA       Earth
Advisory